sensor_id;sensor_type;location;lat;lon;timestamp;P1;durP1;ratioP1;P2;durP2;ratioP2
52512;SDS011;38422;53.172;6.974;2023-04-24T00:01:15;2.55;;;1.52;;
52512;SDS011;38422;53.172;6.974;2023-04-24T00:03:42;1.53;;;1.30;;
52512;SDS011;38422;53.172;6.974;2023-04-24T00:06:09;1.15;;;0.70;;
52512;SDS011;38422;53.172;6.974;2023-04-24T00:08:35;0.63;;;0.63;;
52512;SDS011;38422;53.172;6.974;2023-04-24T00:11:01;0.40;;;0.40;;
52512;SDS011;38422;53.172;6.974;2023-04-24T00:13:27;1.70;;;0.30;;
52512;SDS011;38422;53.172;6.974;2023-04-24T00:15:53;0.43;;;0.30;;
52512;SDS011;38422;53.172;6.974;2023-04-24T00:18:19;0.70;;;0.43;;
52512;SDS011;38422;53.172;6.974;2023-04-24T00:20:45;0.52;;;0.30;;
52512;SDS011;38422;53.172;6.974;2023-04-24T00:23:11;0.55;;;0.25;;
52512;SDS011;38422;53.172;6.974;2023-04-24T00:25:38;0.40;;;0.20;;
52512;SDS011;38422;53.172;6.974;2023-04-24T00:28:03;0.43;;;0.28;;
52512;SDS011;38422;53.172;6.974;2023-04-24T00:30:29;0.20;;;0.20;;
52512;SDS011;38422;53.172;6.974;2023-04-24T00:32:55;0.25;;;0.25;;
52512;SDS011;38422;53.172;6.974;2023-04-24T00:35:21;0.52;;;0.40;;
52512;SDS011;38422;53.172;6.974;2023-04-24T00:37:46;0.75;;;0.30;;
52512;SDS011;38422;53.172;6.974;2023-04-24T00:40:12;0.45;;;0.20;;
52512;SDS011;38422;53.172;6.974;2023-04-24T00:42:38;0.47;;;0.40;;
52512;SDS011;38422;53.172;6.974;2023-04-24T00:47:32;1.60;;;0.55;;
52512;SDS011;38422;53.172;6.974;2023-04-24T00:49:58;0.85;;;0.50;;
52512;SDS011;38422;53.172;6.974;2023-04-24T00:52:30;0.98;;;0.70;;
52512;SDS011;38422;53.172;6.974;2023-04-24T00:54:58;2.00;;;0.93;;
52512;SDS011;38422;53.172;6.974;2023-04-24T00:57:24;2.03;;;0.80;;
52512;SDS011;38422;53.172;6.974;2023-04-24T00:59:51;0.57;;;0.52;;
52512;SDS011;38422;53.172;6.974;2023-04-24T01:02:18;0.98;;;0.65;;
52512;SDS011;38422;53.172;6.974;2023-04-24T01:04:45;2.15;;;0.57;;
52512;SDS011;38422;53.172;6.974;2023-04-24T01:07:11;1.30;;;0.70;;
52512;SDS011;38422;53.172;6.974;2023-04-24T01:09:37;1.23;;;0.80;;
52512;SDS011;38422;53.172;6.974;2023-04-24T01:12:04;1.88;;;0.90;;
52512;SDS011;38422;53.172;6.974;2023-04-24T01:14:31;1.67;;;0.90;;
52512;SDS011;38422;53.172;6.974;2023-04-24T01:16:57;0.98;;;0.90;;
52512;SDS011;38422;53.172;6.974;2023-04-24T01:19:22;1.15;;;1.05;;
52512;SDS011;38422;53.172;6.974;2023-04-24T01:21:49;1.13;;;1.02;;
52512;SDS011;38422;53.172;6.974;2023-04-24T01:24:19;2.03;;;1.10;;
52512;SDS011;38422;53.172;6.974;2023-04-24T01:26:45;1.20;;;1.10;;
52512;SDS011;38422;53.172;6.974;2023-04-24T01:29:11;1.47;;;1.37;;
52512;SDS011;38422;53.172;6.974;2023-04-24T01:31:37;1.30;;;1.20;;
52512;SDS011;38422;53.172;6.974;2023-04-24T01:34:04;1.15;;;0.90;;
52512;SDS011;38422;53.172;6.974;2023-04-24T01:36:30;1.25;;;0.88;;
52512;SDS011;38422;53.172;6.974;2023-04-24T01:38:58;1.05;;;1.00;;
52512;SDS011;38422;53.172;6.974;2023-04-24T01:41:24;1.17;;;1.08;;
52512;SDS011;38422;53.172;6.974;2023-04-24T01:43:50;1.20;;;1.10;;
52512;SDS011;38422;53.172;6.974;2023-04-24T01:46:16;1.63;;;1.20;;
52512;SDS011;38422;53.172;6.974;2023-04-24T01:48:42;2.03;;;1.48;;
52512;SDS011;38422;53.172;6.974;2023-04-24T01:51:07;1.75;;;1.63;;
52512;SDS011;38422;53.172;6.974;2023-04-24T01:53:33;1.50;;;1.40;;
52512;SDS011;38422;53.172;6.974;2023-04-24T01:55:59;1.70;;;1.50;;
52512;SDS011;38422;53.172;6.974;2023-04-24T01:58:25;2.03;;;1.70;;
52512;SDS011;38422;53.172;6.974;2023-04-24T02:00:52;1.70;;;1.60;;
52512;SDS011;38422;53.172;6.974;2023-04-24T02:03:17;2.30;;;1.60;;
52512;SDS011;38422;53.172;6.974;2023-04-24T02:05:44;2.13;;;1.85;;
52512;SDS011;38422;53.172;6.974;2023-04-24T02:08:10;1.98;;;1.80;;
52512;SDS011;38422;53.172;6.974;2023-04-24T02:10:36;2.10;;;1.90;;
52512;SDS011;38422;53.172;6.974;2023-04-24T02:13:01;1.85;;;1.70;;
52512;SDS011;38422;53.172;6.974;2023-04-24T02:15:27;1.85;;;1.70;;
52512;SDS011;38422;53.172;6.974;2023-04-24T02:17:53;1.95;;;1.75;;
52512;SDS011;38422;53.172;6.974;2023-04-24T02:20:18;2.10;;;1.90;;
52512;SDS011;38422;53.172;6.974;2023-04-24T02:22:44;2.50;;;2.00;;
52512;SDS011;38422;53.172;6.974;2023-04-24T02:25:10;3.15;;;1.90;;
52512;SDS011;38422;53.172;6.974;2023-04-24T02:27:35;2.17;;;1.98;;
52512;SDS011;38422;53.172;6.974;2023-04-24T02:30:01;2.50;;;2.20;;
52512;SDS011;38422;53.172;6.974;2023-04-24T02:32:28;2.60;;;2.30;;
52512;SDS011;38422;53.172;6.974;2023-04-24T02:34:53;3.30;;;2.30;;
52512;SDS011;38422;53.172;6.974;2023-04-24T02:37:19;2.75;;;2.42;;
52512;SDS011;38422;53.172;6.974;2023-04-24T02:39:45;3.60;;;2.50;;
52512;SDS011;38422;53.172;6.974;2023-04-24T02:42:10;3.17;;;2.80;;
52512;SDS011;38422;53.172;6.974;2023-04-24T02:44:36;3.58;;;2.55;;
52512;SDS011;38422;53.172;6.974;2023-04-24T02:47:02;3.08;;;2.78;;
52512;SDS011;38422;53.172;6.974;2023-04-24T02:49:28;3.13;;;2.83;;
52512;SDS011;38422;53.172;6.974;2023-04-24T02:51:54;4.15;;;3.08;;
52512;SDS011;38422;53.172;6.974;2023-04-24T02:54:19;2.60;;;2.40;;
52512;SDS011;38422;53.172;6.974;2023-04-24T02:56:45;3.05;;;2.75;;
52512;SDS011;38422;53.172;6.974;2023-04-24T02:59:11;3.20;;;2.90;;
52512;SDS011;38422;53.172;6.974;2023-04-24T03:01:36;2.80;;;2.60;;
52512;SDS011;38422;53.172;6.974;2023-04-24T03:04:02;3.45;;;3.15;;
52512;SDS011;38422;53.172;6.974;2023-04-24T03:06:28;3.38;;;3.08;;
52512;SDS011;38422;53.172;6.974;2023-04-24T03:08:56;3.55;;;3.25;;
52512;SDS011;38422;53.172;6.974;2023-04-24T03:11:21;3.70;;;3.40;;
52512;SDS011;38422;53.172;6.974;2023-04-24T03:13:47;3.30;;;3.00;;
52512;SDS011;38422;53.172;6.974;2023-04-24T03:16:13;3.53;;;3.22;;
52512;SDS011;38422;53.172;6.974;2023-04-24T03:18:39;3.85;;;3.45;;
52512;SDS011;38422;53.172;6.974;2023-04-24T03:21:04;3.25;;;2.95;;
52512;SDS011;38422;53.172;6.974;2023-04-24T03:23:30;3.30;;;3.00;;
52512;SDS011;38422;53.172;6.974;2023-04-24T03:25:56;3.72;;;2.85;;
52512;SDS011;38422;53.172;6.974;2023-04-24T03:28:21;3.50;;;2.50;;
52512;SDS011;38422;53.172;6.974;2023-04-24T03:30:47;2.67;;;2.47;;
52512;SDS011;38422;53.172;6.974;2023-04-24T03:33:13;3.67;;;2.63;;
52512;SDS011;38422;53.172;6.974;2023-04-24T03:35:39;3.15;;;2.85;;
52512;SDS011;38422;53.172;6.974;2023-04-24T03:38:04;2.90;;;2.60;;
52512;SDS011;38422;53.172;6.974;2023-04-24T03:40:30;2.60;;;2.40;;
52512;SDS011;38422;53.172;6.974;2023-04-24T03:42:58;3.55;;;2.67;;
52512;SDS011;38422;53.172;6.974;2023-04-24T03:45:24;3.55;;;2.55;;
52512;SDS011;38422;53.172;6.974;2023-04-24T03:47:50;4.10;;;2.90;;
52512;SDS011;38422;53.172;6.974;2023-04-24T03:50:15;2.78;;;2.50;;
52512;SDS011;38422;53.172;6.974;2023-04-24T03:52:41;3.75;;;2.72;;
52512;SDS011;38422;53.172;6.974;2023-04-24T03:55:07;3.40;;;2.65;;
52512;SDS011;38422;53.172;6.974;2023-04-24T03:57:32;4.10;;;3.00;;
52512;SDS011;38422;53.172;6.974;2023-04-24T03:59:58;3.53;;;3.22;;
52512;SDS011;38422;53.172;6.974;2023-04-24T04:02:24;3.42;;;3.13;;
52512;SDS011;38422;53.172;6.974;2023-04-24T04:04:50;3.35;;;3.05;;
52512;SDS011;38422;53.172;6.974;2023-04-24T04:07:16;3.55;;;3.25;;
52512;SDS011;38422;53.172;6.974;2023-04-24T04:09:42;3.85;;;3.10;;
52512;SDS011;38422;53.172;6.974;2023-04-24T04:12:08;3.50;;;3.10;;
52512;SDS011;38422;53.172;6.974;2023-04-24T04:14:33;3.85;;;3.45;;
52512;SDS011;38422;53.172;6.974;2023-04-24T04:16:59;4.00;;;3.60;;
52512;SDS011;38422;53.172;6.974;2023-04-24T04:19:25;4.05;;;3.35;;
52512;SDS011;38422;53.172;6.974;2023-04-24T04:21:51;5.45;;;3.88;;
52512;SDS011;38422;53.172;6.974;2023-04-24T04:24:19;4.50;;;4.07;;
52512;SDS011;38422;53.172;6.974;2023-04-24T04:26:46;3.80;;;3.40;;
52512;SDS011;38422;53.172;6.974;2023-04-24T04:29:12;4.03;;;3.55;;
52512;SDS011;38422;53.172;6.974;2023-04-24T04:31:41;4.05;;;3.55;;
52512;SDS011;38422;53.172;6.974;2023-04-24T04:34:06;4.50;;;4.07;;
52512;SDS011;38422;53.172;6.974;2023-04-24T04:36:32;4.25;;;3.80;;
52512;SDS011;38422;53.172;6.974;2023-04-24T04:39:02;3.90;;;3.50;;
52512;SDS011;38422;53.172;6.974;2023-04-24T04:41:31;3.75;;;3.38;;
52512;SDS011;38422;53.172;6.974;2023-04-24T04:43:57;3.80;;;3.40;;
52512;SDS011;38422;53.172;6.974;2023-04-24T04:46:25;4.55;;;3.53;;
52512;SDS011;38422;53.172;6.974;2023-04-24T04:48:52;4.63;;;3.50;;
52512;SDS011;38422;53.172;6.974;2023-04-24T04:51:18;3.85;;;3.35;;
52512;SDS011;38422;53.172;6.974;2023-04-24T04:53:44;3.83;;;3.25;;
52512;SDS011;38422;53.172;6.974;2023-04-24T04:56:09;4.60;;;3.10;;
52512;SDS011;38422;53.172;6.974;2023-04-24T04:58:35;4.22;;;3.30;;
52512;SDS011;38422;53.172;6.974;2023-04-24T05:01:01;4.35;;;2.80;;
52512;SDS011;38422;53.172;6.974;2023-04-24T05:03:27;4.80;;;2.72;;
52512;SDS011;38422;53.172;6.974;2023-04-24T05:05:53;3.15;;;2.85;;
52512;SDS011;38422;53.172;6.974;2023-04-24T05:08:18;2.65;;;2.45;;
52512;SDS011;38422;53.172;6.974;2023-04-24T05:10:44;4.03;;;2.92;;
52512;SDS011;38422;53.172;6.974;2023-04-24T05:13:10;4.65;;;3.15;;
52512;SDS011;38422;53.172;6.974;2023-04-24T05:15:36;5.07;;;3.22;;
52512;SDS011;38422;53.172;6.974;2023-04-24T05:18:02;3.45;;;2.80;;
52512;SDS011;38422;53.172;6.974;2023-04-24T05:20:28;3.53;;;2.80;;
52512;SDS011;38422;53.172;6.974;2023-04-24T05:22:56;4.32;;;2.95;;
52512;SDS011;38422;53.172;6.974;2023-04-24T05:25:22;3.35;;;3.03;;
52512;SDS011;38422;53.172;6.974;2023-04-24T05:27:47;3.65;;;3.00;;
52512;SDS011;38422;53.172;6.974;2023-04-24T05:30:13;3.15;;;2.85;;
52512;SDS011;38422;53.172;6.974;2023-04-24T05:32:39;3.50;;;2.97;;
52512;SDS011;38422;53.172;6.974;2023-04-24T05:35:05;3.35;;;2.95;;
52512;SDS011;38422;53.172;6.974;2023-04-24T05:37:31;3.38;;;2.92;;
52512;SDS011;38422;53.172;6.974;2023-04-24T05:39:57;3.70;;;3.10;;
52512;SDS011;38422;53.172;6.974;2023-04-24T05:42:22;3.88;;;3.13;;
52512;SDS011;38422;53.172;6.974;2023-04-24T05:44:48;4.00;;;3.20;;
52512;SDS011;38422;53.172;6.974;2023-04-24T05:47:14;3.88;;;2.92;;
52512;SDS011;38422;53.172;6.974;2023-04-24T05:49:40;5.28;;;3.60;;
52512;SDS011;38422;53.172;6.974;2023-04-24T05:52:05;4.28;;;3.10;;
52512;SDS011;38422;53.172;6.974;2023-04-24T05:54:34;4.28;;;2.90;;
52512;SDS011;38422;53.172;6.974;2023-04-24T05:56:59;3.53;;;2.80;;
52512;SDS011;38422;53.172;6.974;2023-04-24T05:59:29;3.47;;;2.60;;
52512;SDS011;38422;53.172;6.974;2023-04-24T06:01:55;3.78;;;2.60;;
52512;SDS011;38422;53.172;6.974;2023-04-24T06:04:21;3.08;;;2.55;;
52512;SDS011;38422;53.172;6.974;2023-04-24T06:06:47;2.88;;;2.30;;
52512;SDS011;38422;53.172;6.974;2023-04-24T06:09:16;3.17;;;2.45;;
52512;SDS011;38422;53.172;6.974;2023-04-24T06:11:42;3.28;;;2.33;;
52512;SDS011;38422;53.172;6.974;2023-04-24T06:14:08;3.15;;;2.42;;
52512;SDS011;38422;53.172;6.974;2023-04-24T06:16:34;2.97;;;2.35;;
52512;SDS011;38422;53.172;6.974;2023-04-24T06:19:00;3.10;;;2.50;;
52512;SDS011;38422;53.172;6.974;2023-04-24T06:21:26;2.92;;;2.20;;
52512;SDS011;38422;53.172;6.974;2023-04-24T06:23:52;3.97;;;2.70;;
52512;SDS011;38422;53.172;6.974;2023-04-24T06:26:19;3.10;;;2.60;;
52512;SDS011;38422;53.172;6.974;2023-04-24T06:28:44;3.33;;;2.50;;
52512;SDS011;38422;53.172;6.974;2023-04-24T06:31:10;3.13;;;2.65;;
52512;SDS011;38422;53.172;6.974;2023-04-24T06:33:36;3.20;;;2.60;;
52512;SDS011;38422;53.172;6.974;2023-04-24T06:36:02;3.40;;;2.80;;
52512;SDS011;38422;53.172;6.974;2023-04-24T06:38:29;3.00;;;2.55;;
52512;SDS011;38422;53.172;6.974;2023-04-24T06:40:54;3.47;;;2.88;;
52512;SDS011;38422;53.172;6.974;2023-04-24T06:43:20;4.32;;;3.30;;
52512;SDS011;38422;53.172;6.974;2023-04-24T06:45:46;3.20;;;2.53;;
52512;SDS011;38422;53.172;6.974;2023-04-24T06:48:12;3.65;;;2.92;;
52512;SDS011;38422;53.172;6.974;2023-04-24T06:50:37;3.40;;;2.50;;
52512;SDS011;38422;53.172;6.974;2023-04-24T06:53:03;3.17;;;2.50;;
52512;SDS011;38422;53.172;6.974;2023-04-24T06:55:29;4.15;;;2.75;;
52512;SDS011;38422;53.172;6.974;2023-04-24T06:57:54;5.78;;;4.10;;
52512;SDS011;38422;53.172;6.974;2023-04-24T07:00:20;10.10;;;6.65;;
52512;SDS011;38422;53.172;6.974;2023-04-24T07:02:46;4.25;;;3.28;;
52512;SDS011;38422;53.172;6.974;2023-04-24T07:05:12;3.92;;;3.30;;
52512;SDS011;38422;53.172;6.974;2023-04-24T07:07:37;4.18;;;3.13;;
52512;SDS011;38422;53.172;6.974;2023-04-24T07:10:05;4.20;;;3.50;;
52512;SDS011;38422;53.172;6.974;2023-04-24T07:12:34;4.75;;;3.00;;
52512;SDS011;38422;53.172;6.974;2023-04-24T07:15:00;3.83;;;2.90;;
52512;SDS011;38422;53.172;6.974;2023-04-24T07:17:26;2.95;;;2.42;;
52512;SDS011;38422;53.172;6.974;2023-04-24T07:19:52;3.63;;;2.40;;
52512;SDS011;38422;53.172;6.974;2023-04-24T07:22:18;3.17;;;2.30;;
52512;SDS011;38422;53.172;6.974;2023-04-24T07:24:44;2.60;;;2.08;;
52512;SDS011;38422;53.172;6.974;2023-04-24T07:27:10;2.75;;;2.13;;
52512;SDS011;38422;53.172;6.974;2023-04-24T07:29:36;2.80;;;1.80;;
52512;SDS011;38422;53.172;6.974;2023-04-24T07:32:02;2.63;;;1.90;;
52512;SDS011;38422;53.172;6.974;2023-04-24T07:34:29;1.98;;;1.60;;
52512;SDS011;38422;53.172;6.974;2023-04-24T07:36:55;2.58;;;1.85;;
52512;SDS011;38422;53.172;6.974;2023-04-24T07:39:21;2.38;;;1.75;;
52512;SDS011;38422;53.172;6.974;2023-04-24T07:41:46;5.85;;;4.72;;
52512;SDS011;38422;53.172;6.974;2023-04-24T07:44:12;6.80;;;3.55;;
52512;SDS011;38422;53.172;6.974;2023-04-24T07:46:38;5.70;;;3.70;;
52512;SDS011;38422;53.172;6.974;2023-04-24T07:49:03;7.32;;;3.83;;
52512;SDS011;38422;53.172;6.974;2023-04-24T07:51:30;6.78;;;4.50;;
52512;SDS011;38422;53.172;6.974;2023-04-24T07:53:57;6.22;;;3.97;;
52512;SDS011;38422;53.172;6.974;2023-04-24T07:56:23;4.47;;;3.10;;
52512;SDS011;38422;53.172;6.974;2023-04-24T07:58:48;3.70;;;2.20;;
52512;SDS011;38422;53.172;6.974;2023-04-24T08:01:14;2.83;;;2.10;;
52512;SDS011;38422;53.172;6.974;2023-04-24T08:03:40;3.05;;;2.10;;
52512;SDS011;38422;53.172;6.974;2023-04-24T08:06:06;2.78;;;2.10;;
52512;SDS011;38422;53.172;6.974;2023-04-24T08:08:32;3.78;;;2.55;;
52512;SDS011;38422;53.172;6.974;2023-04-24T08:10:58;3.70;;;2.70;;
52512;SDS011;38422;53.172;6.974;2023-04-24T08:13:23;4.07;;;2.67;;
52512;SDS011;38422;53.172;6.974;2023-04-24T08:15:49;4.15;;;2.33;;
52512;SDS011;38422;53.172;6.974;2023-04-24T08:18:15;4.05;;;2.50;;
52512;SDS011;38422;53.172;6.974;2023-04-24T08:20:41;3.47;;;2.00;;
52512;SDS011;38422;53.172;6.974;2023-04-24T08:23:07;3.47;;;1.67;;
52512;SDS011;38422;53.172;6.974;2023-04-24T08:25:36;2.85;;;1.70;;
52512;SDS011;38422;53.172;6.974;2023-04-24T08:28:02;3.85;;;1.40;;
52512;SDS011;38422;53.172;6.974;2023-04-24T08:30:29;2.72;;;1.33;;
52512;SDS011;38422;53.172;6.974;2023-04-24T08:32:55;3.17;;;1.20;;
52512;SDS011;38422;53.172;6.974;2023-04-24T08:35:20;2.58;;;1.20;;
52512;SDS011;38422;53.172;6.974;2023-04-24T08:37:48;3.42;;;1.60;;
52512;SDS011;38422;53.172;6.974;2023-04-24T08:40:14;4.15;;;1.70;;
52512;SDS011;38422;53.172;6.974;2023-04-24T08:45:11;4.63;;;2.00;;
52512;SDS011;38422;53.172;6.974;2023-04-24T08:47:41;6.50;;;2.60;;
52512;SDS011;38422;53.172;6.974;2023-04-24T08:50:09;9.77;;;3.38;;
52512;SDS011;38422;53.172;6.974;2023-04-24T08:52:37;6.75;;;3.20;;
52512;SDS011;38422;53.172;6.974;2023-04-24T08:55:05;8.32;;;4.25;;
52512;SDS011;38422;53.172;6.974;2023-04-24T08:57:31;8.10;;;5.13;;
52512;SDS011;38422;53.172;6.974;2023-04-24T08:59:59;10.57;;;6.05;;
52512;SDS011;38422;53.172;6.974;2023-04-24T09:02:28;11.07;;;5.67;;
52512;SDS011;38422;53.172;6.974;2023-04-24T09:04:54;10.90;;;6.85;;
52512;SDS011;38422;53.172;6.974;2023-04-24T09:07:22;9.55;;;6.75;;
52512;SDS011;38422;53.172;6.974;2023-04-24T09:09:50;14.10;;;8.55;;
52512;SDS011;38422;53.172;6.974;2023-04-24T09:12:17;12.65;;;8.57;;
52512;SDS011;38422;53.172;6.974;2023-04-24T09:14:44;14.32;;;8.60;;
52512;SDS011;38422;53.172;6.974;2023-04-24T09:17:13;12.60;;;8.32;;
52512;SDS011;38422;53.172;6.974;2023-04-24T09:19:40;12.45;;;8.80;;
52512;SDS011;38422;53.172;6.974;2023-04-24T09:22:06;14.48;;;9.57;;
52512;SDS011;38422;53.172;6.974;2023-04-24T09:24:34;16.17;;;9.55;;
52512;SDS011;38422;53.172;6.974;2023-04-24T09:27:00;15.10;;;8.88;;
52512;SDS011;38422;53.172;6.974;2023-04-24T09:29:29;15.15;;;8.43;;
52512;SDS011;38422;53.172;6.974;2023-04-24T09:34:25;14.30;;;8.77;;
52512;SDS011;38422;53.172;6.974;2023-04-24T09:36:54;16.75;;;8.27;;
52512;SDS011;38422;53.172;6.974;2023-04-24T09:39:20;16.80;;;8.90;;
52512;SDS011;38422;53.172;6.974;2023-04-24T09:41:47;17.00;;;8.75;;
52512;SDS011;38422;53.172;6.974;2023-04-24T09:44:17;15.82;;;8.48;;
52512;SDS011;38422;53.172;6.974;2023-04-24T09:46:52;15.20;;;8.48;;
52512;SDS011;38422;53.172;6.974;2023-04-24T09:52:02;14.35;;;8.95;;
52512;SDS011;38422;53.172;6.974;2023-04-24T09:54:28;15.82;;;8.57;;
52512;SDS011;38422;53.172;6.974;2023-04-24T09:56:54;14.73;;;8.75;;
52512;SDS011;38422;53.172;6.974;2023-04-24T09:59:21;12.73;;;8.52;;
52512;SDS011;38422;53.172;6.974;2023-04-24T10:01:47;11.32;;;7.72;;
52512;SDS011;38422;53.172;6.974;2023-04-24T10:06:44;10.48;;;7.15;;
52512;SDS011;38422;53.172;6.974;2023-04-24T10:09:10;14.18;;;7.57;;
52512;SDS011;38422;53.172;6.974;2023-04-24T10:11:41;11.50;;;7.70;;
52512;SDS011;38422;53.172;6.974;2023-04-24T10:14:09;13.00;;;7.20;;
52512;SDS011;38422;53.172;6.974;2023-04-24T10:16:37;13.65;;;7.38;;
52512;SDS011;38422;53.172;6.974;2023-04-24T10:19:07;13.75;;;6.97;;
52512;SDS011;38422;53.172;6.974;2023-04-24T10:21:36;9.85;;;6.05;;
52512;SDS011;38422;53.172;6.974;2023-04-24T10:24:07;8.82;;;5.93;;
52512;SDS011;38422;53.172;6.974;2023-04-24T10:26:36;13.20;;;6.97;;
52512;SDS011;38422;53.172;6.974;2023-04-24T10:29:03;10.90;;;6.10;;
52512;SDS011;38422;53.172;6.974;2023-04-24T10:31:34;13.32;;;6.00;;
52512;SDS011;38422;53.172;6.974;2023-04-24T10:34:01;9.88;;;5.32;;
52512;SDS011;38422;53.172;6.974;2023-04-24T10:36:28;12.43;;;5.27;;
52512;SDS011;38422;53.172;6.974;2023-04-24T10:38:58;11.57;;;5.70;;
52512;SDS011;38422;53.172;6.974;2023-04-24T10:41:27;10.60;;;5.38;;
52512;SDS011;38422;53.172;6.974;2023-04-24T10:44:07;15.70;;;5.85;;
52512;SDS011;38422;53.172;6.974;2023-04-24T10:46:35;14.00;;;5.63;;
52512;SDS011;38422;53.172;6.974;2023-04-24T10:49:05;12.18;;;5.43;;
52512;SDS011;38422;53.172;6.974;2023-04-24T10:51:44;12.10;;;5.22;;
52512;SDS011;38422;53.172;6.974;2023-04-24T10:56:51;11.18;;;4.45;;
52512;SDS011;38422;53.172;6.974;2023-04-24T10:59:26;10.27;;;4.33;;
52512;SDS011;38422;53.172;6.974;2023-04-24T11:01:59;9.02;;;3.72;;
52512;SDS011;38422;53.172;6.974;2023-04-24T11:04:29;8.10;;;3.60;;
52512;SDS011;38422;53.172;6.974;2023-04-24T11:06:58;8.40;;;3.70;;
52512;SDS011;38422;53.172;6.974;2023-04-24T11:09:28;7.35;;;3.30;;
52512;SDS011;38422;53.172;6.974;2023-04-24T11:12:03;9.05;;;2.83;;
52512;SDS011;38422;53.172;6.974;2023-04-24T11:14:58;7.03;;;2.30;;
52512;SDS011;38422;53.172;6.974;2023-04-24T11:17:36;6.50;;;2.33;;
52512;SDS011;38422;53.172;6.974;2023-04-24T11:20:09;7.22;;;2.63;;
52512;SDS011;38422;53.172;6.974;2023-04-24T11:22:37;7.30;;;2.42;;
52512;SDS011;38422;53.172;6.974;2023-04-24T11:25:07;7.75;;;2.20;;
52512;SDS011;38422;53.172;6.974;2023-04-24T11:27:41;6.32;;;2.30;;
52512;SDS011;38422;53.172;6.974;2023-04-24T11:30:08;7.90;;;2.40;;
52512;SDS011;38422;53.172;6.974;2023-04-24T11:32:39;8.45;;;3.35;;
52512;SDS011;38422;53.172;6.974;2023-04-24T11:35:16;6.55;;;2.72;;
52512;SDS011;38422;53.172;6.974;2023-04-24T11:37:49;5.85;;;2.15;;
52512;SDS011;38422;53.172;6.974;2023-04-24T11:40:17;5.65;;;2.08;;
52512;SDS011;38422;53.172;6.974;2023-04-24T11:42:51;4.90;;;1.70;;
52512;SDS011;38422;53.172;6.974;2023-04-24T11:47:46;7.75;;;1.88;;
52512;SDS011;38422;53.172;6.974;2023-04-24T11:50:15;3.97;;;1.27;;
52512;SDS011;38422;53.172;6.974;2023-04-24T11:52:43;5.18;;;1.40;;
52512;SDS011;38422;53.172;6.974;2023-04-24T11:57:39;5.13;;;1.63;;
52512;SDS011;38422;53.172;6.974;2023-04-24T12:00:14;3.97;;;1.75;;
52512;SDS011;38422;53.172;6.974;2023-04-24T12:02:45;6.63;;;1.90;;
52512;SDS011;38422;53.172;6.974;2023-04-24T12:05:21;5.60;;;1.63;;
52512;SDS011;38422;53.172;6.974;2023-04-24T12:07:51;7.22;;;1.50;;
52512;SDS011;38422;53.172;6.974;2023-04-24T12:10:21;6.07;;;1.70;;
52512;SDS011;38422;53.172;6.974;2023-04-24T12:12:51;6.20;;;2.08;;
52512;SDS011;38422;53.172;6.974;2023-04-24T12:15:18;4.40;;;1.23;;
52512;SDS011;38422;53.172;6.974;2023-04-24T12:17:45;5.50;;;1.40;;
52512;SDS011;38422;53.172;6.974;2023-04-24T12:20:12;6.45;;;1.52;;
52512;SDS011;38422;53.172;6.974;2023-04-24T12:22:55;6.95;;;1.63;;
52512;SDS011;38422;53.172;6.974;2023-04-24T12:25:25;6.68;;;1.58;;
52512;SDS011;38422;53.172;6.974;2023-04-24T12:28:14;5.95;;;1.60;;
52512;SDS011;38422;53.172;6.974;2023-04-24T12:30:47;5.35;;;1.20;;
52512;SDS011;38422;53.172;6.974;2023-04-24T12:33:20;5.50;;;1.38;;
52512;SDS011;38422;53.172;6.974;2023-04-24T12:35:47;8.88;;;1.45;;
52512;SDS011;38422;53.172;6.974;2023-04-24T12:38:13;4.75;;;1.30;;
52512;SDS011;38422;53.172;6.974;2023-04-24T12:40:41;7.63;;;1.50;;
52512;SDS011;38422;53.172;6.974;2023-04-24T12:43:19;6.20;;;1.35;;
52512;SDS011;38422;53.172;6.974;2023-04-24T12:45:48;4.85;;;1.20;;
52512;SDS011;38422;53.172;6.974;2023-04-24T12:48:14;6.05;;;1.40;;
52512;SDS011;38422;53.172;6.974;2023-04-24T12:50:40;8.32;;;1.30;;
52512;SDS011;38422;53.172;6.974;2023-04-24T12:53:07;5.45;;;1.13;;
52512;SDS011;38422;53.172;6.974;2023-04-24T12:55:36;6.47;;;1.50;;
52512;SDS011;38422;53.172;6.974;2023-04-24T12:58:01;5.43;;;1.20;;
52512;SDS011;38422;53.172;6.974;2023-04-24T13:00:28;5.20;;;1.20;;
52512;SDS011;38422;53.172;6.974;2023-04-24T13:02:54;3.13;;;1.05;;
52512;SDS011;38422;53.172;6.974;2023-04-24T13:05:20;3.53;;;0.95;;
52512;SDS011;38422;53.172;6.974;2023-04-24T13:07:45;3.95;;;1.00;;
52512;SDS011;38422;53.172;6.974;2023-04-24T13:10:11;2.80;;;0.90;;
52512;SDS011;38422;53.172;6.974;2023-04-24T13:12:38;3.67;;;1.40;;
52512;SDS011;38422;53.172;6.974;2023-04-24T13:15:05;3.47;;;1.30;;
52512;SDS011;38422;53.172;6.974;2023-04-24T13:17:32;4.63;;;1.10;;
52512;SDS011;38422;53.172;6.974;2023-04-24T13:19:58;4.13;;;1.08;;
52512;SDS011;38422;53.172;6.974;2023-04-24T13:22:24;3.78;;;0.90;;
52512;SDS011;38422;53.172;6.974;2023-04-24T13:24:50;4.25;;;0.75;;
52512;SDS011;38422;53.172;6.974;2023-04-24T13:27:16;5.03;;;0.90;;
52512;SDS011;38422;53.172;6.974;2023-04-24T13:29:42;2.05;;;0.80;;
52512;SDS011;38422;53.172;6.974;2023-04-24T13:32:08;5.00;;;0.82;;
52512;SDS011;38422;53.172;6.974;2023-04-24T13:34:34;4.00;;;0.80;;
52512;SDS011;38422;53.172;6.974;2023-04-24T13:37:00;3.33;;;0.70;;
52512;SDS011;38422;53.172;6.974;2023-04-24T13:39:28;3.13;;;0.70;;
52512;SDS011;38422;53.172;6.974;2023-04-24T13:41:54;3.80;;;0.85;;
52512;SDS011;38422;53.172;6.974;2023-04-24T13:44:21;5.15;;;0.90;;
52512;SDS011;38422;53.172;6.974;2023-04-24T13:46:48;6.65;;;0.98;;
52512;SDS011;38422;53.172;6.974;2023-04-24T13:49:15;5.65;;;0.77;;
52512;SDS011;38422;53.172;6.974;2023-04-24T13:51:42;4.28;;;0.60;;
52512;SDS011;38422;53.172;6.974;2023-04-24T13:54:08;4.55;;;0.77;;
52512;SDS011;38422;53.172;6.974;2023-04-24T13:56:34;3.72;;;0.90;;
52512;SDS011;38422;53.172;6.974;2023-04-24T13:58:59;5.13;;;0.82;;
52512;SDS011;38422;53.172;6.974;2023-04-24T14:01:26;4.07;;;0.95;;
52512;SDS011;38422;53.172;6.974;2023-04-24T14:03:52;5.13;;;0.80;;
52512;SDS011;38422;53.172;6.974;2023-04-24T14:06:19;6.07;;;0.70;;
52512;SDS011;38422;53.172;6.974;2023-04-24T14:08:45;3.75;;;0.88;;
52512;SDS011;38422;53.172;6.974;2023-04-24T14:11:11;5.37;;;1.10;;
52512;SDS011;38422;53.172;6.974;2023-04-24T14:13:37;6.93;;;0.70;;
52512;SDS011;38422;53.172;6.974;2023-04-24T14:16:04;2.67;;;0.80;;
52512;SDS011;38422;53.172;6.974;2023-04-24T14:18:30;4.97;;;0.80;;
52512;SDS011;38422;53.172;6.974;2023-04-24T14:20:56;6.97;;;0.90;;
52512;SDS011;38422;53.172;6.974;2023-04-24T14:23:21;3.60;;;0.82;;
52512;SDS011;38422;53.172;6.974;2023-04-24T14:25:47;3.42;;;0.70;;
52512;SDS011;38422;53.172;6.974;2023-04-24T14:28:16;3.22;;;0.90;;
52512;SDS011;38422;53.172;6.974;2023-04-24T14:30:43;3.47;;;0.80;;
52512;SDS011;38422;53.172;6.974;2023-04-24T14:33:08;2.88;;;0.40;;
52512;SDS011;38422;53.172;6.974;2023-04-24T14:35:34;3.80;;;0.70;;
52512;SDS011;38422;53.172;6.974;2023-04-24T14:38:00;1.90;;;0.50;;
52512;SDS011;38422;53.172;6.974;2023-04-24T14:40:26;2.17;;;0.50;;
52512;SDS011;38422;53.172;6.974;2023-04-24T14:42:52;1.48;;;0.65;;
52512;SDS011;38422;53.172;6.974;2023-04-24T14:45:18;4.95;;;0.70;;
52512;SDS011;38422;53.172;6.974;2023-04-24T14:47:44;3.35;;;0.85;;
52512;SDS011;38422;53.172;6.974;2023-04-24T14:50:13;2.80;;;0.73;;
52512;SDS011;38422;53.172;6.974;2023-04-24T14:52:38;4.18;;;0.93;;
52512;SDS011;38422;53.172;6.974;2023-04-24T14:55:05;2.97;;;0.90;;
52512;SDS011;38422;53.172;6.974;2023-04-24T14:57:32;4.82;;;0.98;;
52512;SDS011;38422;53.172;6.974;2023-04-24T14:59:58;3.55;;;1.00;;
52512;SDS011;38422;53.172;6.974;2023-04-24T15:02:24;4.47;;;1.00;;
52512;SDS011;38422;53.172;6.974;2023-04-24T15:04:49;6.72;;;1.30;;